Time;durP1;ratioP1;P1;durP2;ratioP2;P2;SDS_P1;SDS_P2;PMS_P1;PMS_P2;Temp;Humidity;BMP_temperature;BMP_pressure;BME280_temperature;BME280_humidity;BME280_pressure;Samples;Min_cycle;Max_cycle;Signal;HPM_P1;HPM_P2
2023/10/09 00:02:11;;;;;;;;;;;;;;;13.00;100.00;97160.56;5064813;28;19929;-71
2023/10/09 00:04:45;;;;;;;;;;;;;;;12.98;100.00;97153.91;5063960;28;19937;-71
2023/10/09 00:07:11;;;;;;;;;;;;;;;12.96;100.00;97153.31;5064257;28;19957;-71
2023/10/09 00:09:46;;;;;;;;;;;;;;;12.94;100.00;97152.72;5063912;28;19942;-71
2023/10/09 00:12:16;;;;;;;;;;;;;;;12.95;100.00;97155.13;5064469;28;20199;-71
2023/10/09 00:14:47;;;;;;;;;;;;;;;12.94;100.00;97153.53;5063765;28;19956;-71
2023/10/09 00:17:17;;;;;;;;;;;;;;;12.94;100.00;97150.91;5064401;28;19944;-72
2023/10/09 00:19:43;;;;;;;;;;;;;;;12.93;98.28;97138.75;5064596;28;19941;-71
2023/10/09 00:22:18;;;;;;;;;;;;;;;12.94;100.00;97150.09;5064068;28;19944;-72
2023/10/09 00:24:49;;;;;;;;;;;;;;;12.93;100.00;97138.75;5064302;28;20127;-71
2023/10/09 00:27:20;;;;;;;;;;;;;;;12.93;100.00;97135.31;5064259;28;19958;-71
2023/10/09 00:29:46;;;;;;;;;;;;;;;12.94;100.00;97136.94;5064301;28;19942;-71
2023/10/09 00:32:32;;;;;;;;;;;;;;;12.93;100.00;97136.09;5063689;28;19936;-72
2023/10/09 00:35:13;;;;;;;;;;;;;;;12.92;99.64;97131.88;5065093;28;19965;-72
2023/10/09 00:37:39;;;;;;;;;;;;;;;12.91;99.99;97130.25;5067781;28;19935;-71
2023/10/09 00:40:13;;;;;;;;;;;;;;;12.91;99.47;97132.09;5067596;28;19931;-72
2023/10/09 00:42:39;;;;;;;;;;;;;;;12.91;99.05;97124.97;5067869;28;20122;-71
2023/10/09 00:45:05;;;;;;;;;;;;;;;12.92;99.11;97123.19;5068199;28;20109;-71
2023/10/09 00:47:35;;;;;;;;;;;;;;;12.92;98.44;97118.72;5067354;28;19963;-71
2023/10/09 00:52:50;;;;;;;;;;;;;;;12.95;98.89;97117.47;5067951;28;19938;-71
2023/10/09 00:55:21;;;;;;;;;;;;;;;12.92;99.47;97121.34;5067828;28;19969;-71
2023/10/09 00:57:50;;;;;;;;;;;;;;;12.91;99.96;97119.72;5067818;28;19938;-72
2023/10/09 01:05:58;;;;;;;;;;;;;;;12.86;99.34;97110.88;5067960;28;19940;-71
2023/10/09 01:11:18;;;;;;;;;;;;;;;12.82;99.92;97105.22;5067044;28;20212;-72
2023/10/09 01:16:17;;;;;;;;;;;;;;;12.80;100.00;97102.00;5066563;28;20215;-72
2023/10/09 01:18:43;;;;;;;;;;;;;;;12.80;99.86;97104.63;5067657;28;19932;-72
2023/10/09 01:21:14;;;;;;;;;;;;;;;12.78;100.00;97104.84;5066784;28;19949;-73
2023/10/09 01:23:52;;;;;;;;;;;;;;;12.77;100.00;97098.00;5067384;28;19940;-71
2023/10/09 01:26:18;;;;;;;;;;;;;;;12.78;99.58;97099.59;5067554;28;19936;-71
2023/10/09 01:28:44;;;;;;;;;;;;;;;12.77;99.84;97090.09;5066720;28;19935;-71
2023/10/09 01:31:10;;;;;;;;;;;;;;;12.76;99.47;97096.38;5065548;28;19940;-71
2023/10/09 01:33:36;;;;;;;;;;;;;;;12.73;99.42;97096.00;5066564;28;19938;-72
2023/10/09 01:36:03;;;;;;;;;;;;;;;12.71;99.72;97090.16;5066424;28;20135;-72
2023/10/09 01:38:40;;;;;;;;;;;;;;;12.70;99.63;97096.41;5066536;28;19940;-72
2023/10/09 01:41:08;;;;;;;;;;;;;;;12.69;100.00;97100.09;5067217;28;19936;-72
2023/10/09 01:43:34;;;;;;;;;;;;;;;12.68;100.00;97091.41;5066905;28;19939;-72
2023/10/09 01:46:01;;;;;;;;;;;;;;;12.66;99.95;97090.81;5066015;28;19939;-72
2023/10/09 01:48:27;;;;;;;;;;;;;;;12.65;99.70;97083.13;5066224;28;19966;-71
2023/10/09 01:50:53;;;;;;;;;;;;;;;12.66;100.00;97080.28;5066565;28;19996;-72
2023/10/09 01:53:22;;;;;;;;;;;;;;;12.65;100.00;97081.28;5066267;28;19954;-72
2023/10/09 01:55:49;;;;;;;;;;;;;;;12.65;100.00;97077.84;5066095;28;19952;-72
2023/10/09 02:00:54;;;;;;;;;;;;;;;12.65;100.00;97076.03;5066115;28;20096;-71
2023/10/09 02:03:23;;;;;;;;;;;;;;;12.63;100.00;97075.44;5066577;28;20112;-72
2023/10/09 02:05:51;;;;;;;;;;;;;;;12.63;100.00;97075.44;5066526;28;19935;-71
2023/10/09 02:08:21;;;;;;;;;;;;;;;12.64;100.00;97076.22;5065918;28;19938;-72
2023/10/09 02:10:48;;;;;;;;;;;;;;;12.63;100.00;97075.44;5066719;28;19932;-72
2023/10/09 02:13:22;;;;;;;;;;;;;;;12.62;100.00;97075.63;5066356;28;20113;-72
2023/10/09 02:15:53;;;;;;;;;;;;;;;12.61;100.00;97066.16;5065805;28;19949;-72
2023/10/09 02:23:45;;;;;;;;;;;;;;;12.61;100.00;97060.88;5066256;28;19938;-72
2023/10/09 02:26:32;;;;;;;;;;;;;;;12.60;99.65;97060.09;5065964;28;20115;-72
2023/10/09 02:28:58;;;;;;;;;;;;;;;12.62;99.85;97065.09;5065128;28;19949;-72
2023/10/09 02:31:40;;;;;;;;;;;;;;;12.63;100.00;97066.75;5065520;28;20125;-71
2023/10/09 02:34:07;;;;;;;;;;;;;;;12.63;100.00;97070.16;5065783;28;19940;-72
2023/10/09 02:36:49;;;;;;;;;;;;;;;12.63;100.00;97064.91;5066224;28;19937;-72
2023/10/09 02:39:25;;;;;;;;;;;;;;;12.62;100.00;97059.84;5065730;28;19931;-72
2023/10/09 02:41:55;;;;;;;;;;;;;;;12.61;100.00;97059.06;5065834;28;19943;-72
2023/10/09 02:44:25;;;;;;;;;;;;;;;12.63;100.00;97058.84;5065989;28;19936;-72
2023/10/09 02:46:51;;;;;;;;;;;;;;;12.63;100.00;97046.47;5065707;28;19968;-73
2023/10/09 02:49:18;;;;;;;;;;;;;;;12.61;100.00;97045.91;5065371;28;19939;-71
2023/10/09 02:51:43;;;;;;;;;;;;;;;12.59;100.00;97053.19;5065649;28;19935;-72
2023/10/09 02:54:18;;;;;;;;;;;;;;;12.59;100.00;97051.38;5065045;28;19931;-72
2023/10/09 02:56:54;;;;;;;;;;;;;;;12.58;100.00;97046.34;5065119;28;19947;-72
2023/10/09 02:59:21;;;;;;;;;;;;;;;12.57;100.00;97042.88;5065065;28;19938;-72
2023/10/09 03:01:47;;;;;;;;;;;;;;;12.59;99.70;97047.94;5064982;28;19938;-72
2023/10/09 03:04:14;;;;;;;;;;;;;;;12.59;100.00;97047.94;5064823;28;19937;-72
2023/10/09 03:06:49;;;;;;;;;;;;;;;12.58;100.00;97041.88;5064834;28;19953;-71
2023/10/09 03:09:16;;;;;;;;;;;;;;;12.60;100.00;97044.28;5064212;28;20208;-72
2023/10/09 03:11:48;;;;;;;;;;;;;;;12.59;100.00;97045.31;5064733;28;19931;-72
2023/10/09 03:14:14;;;;;;;;;;;;;;;12.57;100.00;97042.88;5064605;28;20100;-72
2023/10/09 03:16:40;;;;;;;;;;;;;;;12.56;100.00;97040.50;5065205;28;19936;-72
2023/10/09 03:19:06;;;;;;;;;;;;;;;12.57;100.00;97045.50;5065115;28;20009;-72
2023/10/09 03:21:31;;;;;;;;;;;;;;;12.57;100.00;97036.81;5064821;28;19964;-73
2023/10/09 03:23:57;;;;;;;;;;;;;;;12.55;100.00;97037.03;5065336;28;19972;-72
2023/10/09 03:26:25;;;;;;;;;;;;;;;12.55;100.00;97038.84;5064996;28;19943;-71
2023/10/09 03:28:52;;;;;;;;;;;;;;;12.54;100.00;97038.06;5065226;28;19964;-71
2023/10/09 03:31:18;;;;;;;;;;;;;;;12.53;100.00;97038.28;5063299;28;19934;-71
2023/10/09 03:33:44;;;;;;;;;;;;;;;12.53;100.00;97040.91;5064895;28;20099;-72
2023/10/09 03:36:09;;;;;;;;;;;;;;;12.52;100.00;97034.84;5064180;28;19964;-71
2023/10/09 03:38:36;;;;;;;;;;;;;;;12.54;100.00;97032.00;5065012;28;19929;-72
2023/10/09 03:41:05;;;;;;;;;;;;;;;12.53;100.00;97027.75;5064687;28;19942;-72
2023/10/09 03:43:39;;;;;;;;;;;;;;;12.53;100.00;97025.13;5065004;28;19936;-71
2023/10/09 03:46:12;;;;;;;;;;;;;;;12.51;100.00;97029.78;5064999;28;19928;-72
2023/10/09 03:48:38;;;;;;;;;;;;;;;12.52;100.00;97026.94;5064091;28;19960;-72
2023/10/09 03:51:20;;;;;;;;;;;;;;;12.52;99.99;97026.16;5064367;28;19944;-72
2023/10/09 03:53:53;;;;;;;;;;;;;;;12.52;100.00;97026.94;5064086;28;19941;-72
2023/10/09 03:56:21;;;;;;;;;;;;;;;12.52;100.00;97028.78;5063929;28;19968;-72
2023/10/09 03:58:49;;;;;;;;;;;;;;;12.50;100.00;97026.34;5064007;28;20178;-72
2023/10/09 04:04:00;;;;;;;;;;;;;;;12.49;100.00;97023.94;5064171;28;20075;-72
2023/10/09 04:06:33;;;;;;;;;;;;;;;12.47;100.00;97020.72;5063892;28;19931;-71
2023/10/09 04:08:59;;;;;;;;;;;;;;;12.47;100.00;97024.13;5063320;28;20223;-72
2023/10/09 04:11:25;;;;;;;;;;;;;;;12.46;100.00;97024.38;5063821;28;19932;-72
2023/10/09 04:13:55;;;;;;;;;;;;;;;12.43;100.00;97025.63;5063826;28;19934;-71
2023/10/09 04:18:59;;;;;;;;;;;;;;;12.41;100.00;97022.41;5064318;28;19933;-72
2023/10/09 04:21:35;;;;;;;;;;;;;;;12.41;100.00;97018.94;5064498;28;19945;-72
2023/10/09 04:26:47;;;;;;;;;;;;;;;12.38;100.00;97026.25;5063737;28;19936;-72
2023/10/09 04:29:26;;;;;;;;;;;;;;;12.38;100.00;97030.69;5064242;28;20213;-73
2023/10/09 04:31:56;;;;;;;;;;;;;;;12.37;100.00;97024.66;5063966;28;20212;-71
2023/10/09 04:34:23;;;;;;;;;;;;;;;12.37;100.00;97013.31;5063758;28;19946;-72
2023/10/09 04:36:51;;;;;;;;;;;;;;;12.37;100.00;97010.69;5063653;28;19945;-72
2023/10/09 04:45:18;;;;;;;;;;;;;;;12.35;100.00;97018.78;5030390;28;19936;-73
2023/10/09 04:47:49;;;;;;;;;;;;;;;12.36;100.00;97019.59;5063324;28;19967;-72
2023/10/09 05:02:54;;;;;;;;;;;;;;;12.31;100.00;97033.38;5064216;28;19934;-71
2023/10/09 05:05:48;;;;;;;;;;;;;;;12.28;100.00;97035.63;5063273;28;19933;-72
2023/10/09 05:08:21;;;;;;;;;;;;;;;12.26;100.00;97041.09;5064113;28;19958;-72
2023/10/09 05:16:05;;;;;;;;;;;;;;;12.23;100.00;97036.28;5063966;28;19958;-72
2023/10/09 05:18:36;;;;;;;;;;;;;;;12.23;100.00;97036.28;5063243;28;20144;-72
2023/10/09 05:24:15;;;;;;;;;;;;;;;12.23;100.00;97057.31;5067094;28;20221;-71
2023/10/09 05:37:25;;;;;;;;;;;;;;;12.23;100.00;97062.56;5066623;28;19936;-72
2023/10/09 05:47:53;;;;;;;;;;;;;;;12.17;100.00;97053.72;5066612;28;19967;-72
2023/10/09 06:02:44;;;;;;;;;;;;;;;12.16;100.00;97057.38;5066150;28;19942;-71
2023/10/09 06:03:54;;;;;;;;;;;;;;;12.17;100.00;97060.78;5066577;28;19932;-72
2023/10/09 06:06:44;;;;;;;;;;;;;;;12.17;100.00;97061.59;5066004;28;19938;-71
2023/10/09 06:09:28;;;;;;;;;;;;;;;12.18;100.00;97057.97;5066787;28;19939;-72
2023/10/09 06:19:43;;;;;;;;;;;;;;;12.27;100.00;97068.22;5066362;28;19939;-72
2023/10/09 06:24:42;;;;;;;;;;;;;;;12.31;100.00;97070.22;5065704;28;19947;-72
2023/10/09 06:34:52;;;;;;;;;;;;;;;12.50;100.00;97080.81;5065990;28;19950;-72
2023/10/09 06:42:33;;;;;;;;;;;;;;;12.62;100.00;97086.16;5064961;28;19941;-71
2023/10/09 06:45:07;;;;;;;;;;;;;;;12.66;100.00;97087.34;5065284;28;19991;-72
2023/10/09 06:47:42;;;;;;;;;;;;;;;12.68;100.00;97080.88;5065232;28;19969;-72
2023/10/09 06:50:24;;;;;;;;;;;;;;;12.71;100.00;97055.94;5065202;28;19938;-72
2023/10/09 06:55:50;;;;;;;;;;;;;;;12.80;100.00;97060.69;5065605;28;19951;-71
2023/10/09 06:58:25;;;;;;;;;;;;;;;12.83;100.00;97058.66;5065046;28;19933;-72
2023/10/09 07:03:29;;;;;;;;;;;;;;;12.92;100.00;97081.06;5064856;28;20106;-72
2023/10/09 07:06:23;;;;;;;;;;;;;;;12.96;100.00;97085.66;5065743;28;19942;-72
2023/10/09 07:08:59;;;;;;;;;;;;;;;13.00;100.00;97086.06;5065685;28;19942;-71
2023/10/09 07:14:32;;;;;;;;;;;;;;;13.05;100.00;97077.50;5065571;28;19947;-72
2023/10/09 07:16:57;;;;;;;;;;;;;;;13.08;100.00;97083.13;5064616;28;20073;-72
2023/10/09 07:22:29;;;;;;;;;;;;;;;13.16;100.00;97079.41;5065171;28;19937;-72
2023/10/09 07:25:02;;;;;;;;;;;;;;;13.20;100.00;97081.38;5065425;28;20073;-72
2023/10/09 07:27:53;;;;;;;;;;;;;;;13.26;100.00;97068.38;5064837;28;19942;-72
2023/10/09 07:33:05;;;;;;;;;;;;;;;13.34;100.00;97062.84;5065256;28;19938;-72
2023/10/09 07:38:10;;;;;;;;;;;;;;;13.47;100.00;97062.69;5064329;28;19929;-72
2023/10/09 07:40:55;;;;;;;;;;;;;;;13.53;100.00;97080.25;5064262;28;19936;-72
2023/10/09 07:43:28;;;;;;;;;;;;;;;13.59;100.00;97068.00;5064608;28;19932;-72
2023/10/09 07:48:26;;;;;;;;;;;;;;;13.69;100.00;97089.38;5063986;28;20067;-72
2023/10/09 07:50:57;;;;;;;;;;;;;;;13.72;100.00;97062.56;5064050;28;19946;-71
2023/10/09 07:53:26;;;;;;;;;;;;;;;13.77;100.00;97075.91;5064396;28;19940;-72
2023/10/09 07:56:06;;;;;;;;;;;;;;;13.83;100.00;97070.75;5064469;28;20247;-72
2023/10/09 07:58:33;;;;;;;;;;;;;;;13.89;100.00;97080.41;5064598;28;19932;-72
2023/10/09 08:01:08;;;;;;;;;;;;;;;13.95;100.00;97061.88;5063995;28;19935;-72
2023/10/09 08:03:35;;;;;;;;;;;;;;;14.01;100.00;97050.41;5064048;28;20111;-71
2023/10/09 08:06:37;;;;;;;;;;;;;;;14.11;100.00;97076.25;5063930;28;20120;-72
2023/10/09 08:17:11;;;;;;;;;;;;;;;14.41;100.00;97054.31;5064591;28;19945;-72
2023/10/09 08:19:51;;;;;;;;;;;;;;;14.51;99.47;97044.00;5063836;28;19944;-72
2023/10/09 08:24:55;;;;;;;;;;;;;;;14.70;99.97;97052.66;5064318;28;19930;-71
2023/10/09 08:32:43;;;;;;;;;;;;;;;14.96;100.00;97053.22;5064481;28;19932;-72
2023/10/09 08:37:53;;;;;;;;;;;;;;;15.11;100.00;97052.75;5064213;28;20134;-72
2023/10/09 08:40:31;;;;;;;;;;;;;;;15.17;100.00;97049.97;5064387;28;19939;-72
2023/10/09 08:43:00;;;;;;;;;;;;;;;15.26;100.00;97052.25;5064179;28;19935;-73
2023/10/09 08:45:27;;;;;;;;;;;;;;;15.33;99.94;97043.19;5063501;28;19996;-72
2023/10/09 08:47:54;;;;;;;;;;;;;;;15.40;100.00;97049.13;5063409;28;19962;-72
2023/10/09 08:50:21;;;;;;;;;;;;;;;15.46;99.07;97033.38;5063556;28;20128;-72
2023/10/09 08:52:51;;;;;;;;;;;;;;;15.53;98.60;97034.03;5063432;28;20234;-72
2023/10/09 08:55:18;;;;;;;;;;;;;;;15.59;98.69;97044.47;5062932;28;20186;-72
2023/10/09 08:57:46;;;;;;;;;;;;;;;15.66;97.32;97032.97;5066982;28;19947;-72
2023/10/09 09:00:24;;;;;;;;;;;;;;;15.72;98.74;97050.56;5067208;28;19937;-72
2023/10/09 09:02:50;;;;;;;;;;;;;;;15.78;95.83;97028.47;5067777;28;19937;-71
2023/10/09 09:05:18;;;;;;;;;;;;;;;15.84;97.22;97038.09;5067126;28;20124;-71
2023/10/09 09:07:44;;;;;;;;;;;;;;;15.92;99.93;97056.22;5067174;28;19937;-72
2023/10/09 09:10:21;;;;;;;;;;;;;;;15.98;98.44;97043.88;5067126;28;19970;-72
2023/10/09 09:12:53;;;;;;;;;;;;;;;16.05;98.10;97043.75;5067045;28;19937;-72
2023/10/09 09:15:19;;;;;;;;;;;;;;;16.13;99.71;97046.03;5067173;28;19938;-72
2023/10/09 09:17:46;;;;;;;;;;;;;;;16.21;97.75;97049.06;5066940;28;19929;-72
2023/10/09 09:20:27;;;;;;;;;;;;;;;16.29;97.43;97045.22;5067649;28;19943;-72
2023/10/09 09:22:57;;;;;;;;;;;;;;;16.39;92.93;97026.84;5067653;28;19941;-72
2023/10/09 09:25:31;;;;;;;;;;;;;;;16.47;94.23;97036.25;5066807;28;19933;-72
2023/10/09 09:27:58;;;;;;;;;;;;;;;16.58;100.00;97074.28;5067575;28;19943;-72
2023/10/09 09:30:24;;;;;;;;;;;;;;;16.66;96.15;97044.75;5066691;28;20130;-72
2023/10/09 09:33:15;;;;;;;;;;;;;;;16.72;99.46;97064.97;5067433;28;19947;-72
2023/10/09 09:35:36;;;;;;;;;;;;;;;16.82;95.17;97040.53;5066546;28;19961;-71
2023/10/09 09:38:05;;;;;;;;;;;;;;;16.90;97.09;97053.34;5066528;28;20271;-72
2023/10/09 09:40:33;;;;;;;;;;;;;;;17.00;97.00;97057.97;5066481;28;19939;-72
2023/10/09 09:43:10;;;;;;;;;;;;;;;17.09;98.77;97058.38;5067030;28;19933;-72
2023/10/09 09:45:37;;;;;;;;;;;;;;;17.16;98.31;97069.63;5066965;28;19946;-72
2023/10/09 09:48:06;;;;;;;;;;;;;;;17.22;95.79;97042.94;5066165;28;19962;-72
2023/10/09 09:50:32;;;;;;;;;;;;;;;17.31;100.00;97079.63;5066262;28;19940;-72
2023/10/09 09:52:59;;;;;;;;;;;;;;;17.37;99.13;97065.38;5066332;28;19934;-73
2023/10/09 09:55:30;;;;;;;;;;;;;;;17.43;100.00;97072.34;5066660;28;19930;-72
2023/10/09 09:57:57;;;;;;;;;;;;;;;17.51;97.27;97053.34;5066311;28;19948;-72
2023/10/09 10:03:14;;;;;;;;;;;;;;;17.72;96.10;97043.75;5066841;28;19938;-72
2023/10/09 10:05:46;;;;;;;;;;;;;;;17.88;95.84;97049.28;5066876;28;20000;-73
2023/10/09 10:08:19;;;;;;;;;;;;;;;18.04;94.86;97043.09;5066527;28;19934;-72
2023/10/09 10:11:04;;;;;;;;;;;;;;;18.18;91.68;97017.69;5066246;28;19928;-72
2023/10/09 10:13:42;;;;;;;;;;;;;;;18.36;93.54;97037.78;5066491;28;19936;-72
2023/10/09 10:18:53;;;;;;;;;;;;;;;18.64;93.16;97033.22;5066108;28;19937;-72
2023/10/09 10:21:33;;;;;;;;;;;;;;;18.76;93.99;97038.34;5065735;28;19998;-73
2023/10/09 10:24:11;;;;;;;;;;;;;;;18.86;91.74;97022.50;5066533;28;20213;-73
2023/10/09 10:26:37;;;;;;;;;;;;;;;19.00;93.35;97023.66;5066222;28;19927;-72
2023/10/09 10:29:33;;;;;;;;;;;;;;;19.14;92.46;97016.00;5065633;28;20224;-72
2023/10/09 10:32:01;;;;;;;;;;;;;;;19.31;91.32;97010.50;5066105;28;20204;-72
2023/10/09 10:34:54;;;;;;;;;;;;;;;19.44;90.41;97007.38;5065521;28;19956;-72
2023/10/09 10:37:22;;;;;;;;;;;;;;;19.58;87.14;96981.06;5065605;28;19946;-72
2023/10/09 10:39:50;;;;;;;;;;;;;;;19.68;89.97;97004.25;5065446;28;19935;-72
2023/10/09 10:42:34;;;;;;;;;;;;;;;19.78;87.08;96977.69;5065318;28;20128;-72
2023/10/09 10:45:34;;;;;;;;;;;;;;;19.88;88.23;97000.84;5066157;28;20008;-74
2023/10/09 10:47:58;;;;;;;;;;;;;;;19.96;87.88;96999.53;5065120;28;19978;-72
2023/10/09 10:53:19;;;;;;;;;;;;;;;20.09;85.55;96999.00;5065187;28;19927;-72
2023/10/09 10:55:56;;;;;;;;;;;;;;;20.18;85.75;96993.94;5065898;28;19927;-72
2023/10/09 10:58:25;;;;;;;;;;;;;;;20.22;83.87;96987.84;5065063;28;19932;-72
2023/10/09 11:03:29;;;;;;;;;;;;;;;20.25;83.60;97010.47;5065006;28;19961;-72
2023/10/09 11:05:55;;;;;;;;;;;;;;;20.28;84.80;97017.91;5065501;28;19983;-72
2023/10/09 11:08:27;;;;;;;;;;;;;;;20.33;85.56;97020.59;5064868;28;19933;-73
2023/10/09 11:11:09;;;;;;;;;;;;;;;20.39;78.99;96994.72;5065121;28;19936;-72
2023/10/09 11:13:36;;;;;;;;;;;;;;;20.46;83.39;97024.59;5065299;28;19934;-72
2023/10/09 11:16:28;;;;;;;;;;;;;;;20.55;85.06;97036.28;5064630;28;19953;-71
2023/10/09 11:18:57;;;;;;;;;;;;;;;20.64;77.83;97005.41;5064635;28;20121;-72
2023/10/09 11:21:30;;;;;;;;;;;;;;;20.78;79.88;97023.50;5064611;28;19932;-73
2023/10/09 11:24:24;;;;;;;;;;;;;;;20.94;82.47;97027.75;5065193;28;19931;-72
2023/10/09 11:26:54;;;;;;;;;;;;;;;21.05;83.98;97031.97;5064450;28;20146;-72
2023/10/09 11:32:05;;;;;;;;;;;;;;;21.12;80.78;97022.91;5065024;28;19936;-72
2023/10/09 11:34:35;;;;;;;;;;;;;;;21.14;80.80;97023.44;5064347;28;19951;-72
2023/10/09 11:37:02;;;;;;;;;;;;;;;21.15;83.25;97025.84;5065133;28;19954;-72
2023/10/09 11:39:36;;;;;;;;;;;;;;;21.17;78.31;97015.69;5064340;28;19929;-72
2023/10/09 11:42:06;;;;;;;;;;;;;;;21.15;77.22;97009.84;5064627;28;19937;-72
2023/10/09 11:44:55;;;;;;;;;;;;;;;21.15;76.63;97014.38;5064810;28;20215;-73
2023/10/09 11:52:37;;;;;;;;;;;;;;;21.09;76.52;97021.59;5064942;28;19933;-72
2023/10/09 11:55:06;;;;;;;;;;;;;;;21.05;75.25;97002.66;5064986;28;19938;-72
2023/10/09 11:57:33;;;;;;;;;;;;;;;21.03;74.90;97006.66;5065096;28;19949;-72
2023/10/09 12:00:00;;;;;;;;;;;;;;;21.01;78.92;97011.47;5064050;28;19926;-72
2023/10/09 12:02:26;;;;;;;;;;;;;;;20.98;78.00;97004.03;5064559;28;19942;-72
2023/10/09 12:04:55;;;;;;;;;;;;;;;20.96;77.16;97003.50;5063948;28;19932;-72
2023/10/09 12:07:22;;;;;;;;;;;;;;;20.93;77.69;96999.47;5063908;28;19935;-72
2023/10/09 12:09:48;;;;;;;;;;;;;;;20.91;79.18;97006.94;5064673;28;20196;-72
2023/10/09 12:12:14;;;;;;;;;;;;;;;20.87;79.04;97001.38;5063856;28;20214;-72
2023/10/09 12:14:40;;;;;;;;;;;;;;;20.84;78.81;96987.78;5064110;28;19933;-72
2023/10/09 12:17:08;;;;;;;;;;;;;;;20.79;76.08;96971.78;5064615;28;19994;-72
2023/10/09 12:19:38;;;;;;;;;;;;;;;20.80;78.20;96989.38;5063857;28;20096;-72
2023/10/09 12:22:06;;;;;;;;;;;;;;;20.86;81.08;96997.09;5063761;28;20129;-72
2023/10/09 12:24:33;;;;;;;;;;;;;;;20.92;82.54;97002.44;5064561;28;19935;-72
2023/10/09 12:26:59;;;;;;;;;;;;;;;20.94;87.52;97013.63;5063962;28;19935;-72
2023/10/09 12:29:29;;;;;;;;;;;;;;;20.98;85.51;96998.69;5063743;28;19997;-72
2023/10/09 12:31:59;;;;;;;;;;;;;;;21.04;79.29;96962.91;5068544;28;19937;-72
2023/10/09 12:34:26;;;;;;;;;;;;;;;21.13;86.12;96989.84;5068126;28;19952;-72
2023/10/09 12:36:53;;;;;;;;;;;;;;;21.19;78.75;96956.75;5067654;28;19951;-72
2023/10/09 12:39:20;;;;;;;;;;;;;;;21.28;72.11;96925.75;5067939;28;19946;-72
2023/10/09 12:41:46;;;;;;;;;;;;;;;21.37;76.04;96949.97;5067620;28;19937;-72
2023/10/09 12:44:14;;;;;;;;;;;;;;;21.45;70.20;96922.75;5067650;28;19934;-72
2023/10/09 12:46:41;;;;;;;;;;;;;;;21.55;71.83;96930.69;5067961;28;19947;-73
2023/10/09 12:49:07;;;;;;;;;;;;;;;21.65;69.32;96913.84;5068117;28;19940;-72
2023/10/09 12:51:33;;;;;;;;;;;;;;;21.79;68.37;96936.13;5067278;28;20206;-72
2023/10/09 12:54:01;;;;;;;;;;;;;;;21.91;64.90;96927.00;5067483;28;19939;-72
2023/10/09 12:56:33;;;;;;;;;;;;;;;21.96;70.25;96929.63;5067385;28;19953;-72
2023/10/09 12:59:00;;;;;;;;;;;;;;;21.98;68.32;96922.91;5068241;28;19961;-72
2023/10/09 13:01:31;;;;;;;;;;;;;;;22.00;61.35;96914.63;5068154;28;20105;-72
2023/10/09 13:03:59;;;;;;;;;;;;;;;22.07;60.25;96929.25;5067378;28;19941;-72
2023/10/09 13:06:25;;;;;;;;;;;;;;;22.25;64.12;96941.16;5067266;28;19942;-72
2023/10/09 13:08:51;;;;;;;;;;;;;;;22.45;60.88;96939.38;5068029;28;19936;-72
2023/10/09 13:11:18;;;;;;;;;;;;;;;22.62;60.39;96944.28;5067442;28;19985;-72
2023/10/09 13:13:47;;;;;;;;;;;;;;;22.76;59.39;96950.53;5067147;28;19999;-72
2023/10/09 13:16:22;;;;;;;;;;;;;;;22.84;58.56;96951.81;5066986;28;19936;-73
2023/10/09 13:18:59;;;;;;;;;;;;;;;22.93;57.96;96949.28;5067580;28;19942;-72
2023/10/09 13:21:26;;;;;;;;;;;;;;;23.03;59.02;96950.00;5066954;28;19931;-72
2023/10/09 13:23:54;;;;;;;;;;;;;;;23.13;58.65;96954.44;5066948;28;19943;-72
2023/10/09 13:26:25;;;;;;;;;;;;;;;23.18;52.32;96957.06;5066835;28;19940;-72
2023/10/09 13:28:51;;;;;;;;;;;;;;;23.25;51.82;96957.50;5067653;28;19927;-72
2023/10/09 13:31:18;;;;;;;;;;;;;;;23.34;46.37;96960.34;5067205;28;19932;-73
2023/10/09 13:33:44;;;;;;;;;;;;;;;23.30;46.56;96964.66;5066899;28;19935;-72
2023/10/09 13:36:26;;;;;;;;;;;;;;;23.25;50.45;96972.78;5066433;28;19946;-76
2023/10/09 13:39:24;;;;;;;;;;;;;;;23.16;48.82;96974.47;5066097;28;20215;-75
2023/10/09 13:41:59;;;;;;;;;;;;;;;23.08;49.45;96979.38;5065949;28;19985;-74
2023/10/09 13:44:26;;;;;;;;;;;;;;;23.07;48.65;96987.69;5066567;28;19926;-74
2023/10/09 13:46:53;;;;;;;;;;;;;;;23.08;45.93;96978.59;5066230;28;19969;-77
2023/10/09 13:49:22;;;;;;;;;;;;;;;23.10;52.62;96990.59;5066380;28;19945;-76
2023/10/09 13:51:49;;;;;;;;;;;;;;;23.09;47.71;96980.16;5066384;28;20109;-75
2023/10/09 13:54:28;;;;;;;;;;;;;;;23.04;51.17;96980.25;5066372;28;19930;-76
2023/10/09 13:56:54;;;;;;;;;;;;;;;22.99;50.24;96977.56;5067076;28;19956;-72
2023/10/09 13:59:25;;;;;;;;;;;;;;;22.96;50.56;96972.81;5066250;28;19939;-72
2023/10/09 14:01:54;;;;;;;;;;;;;;;22.95;50.13;96966.66;5066675;28;19941;-69
2023/10/09 14:04:21;;;;;;;;;;;;;;;22.96;52.57;96975.50;5066038;28;19942;-70
2023/10/09 14:06:56;;;;;;;;;;;;;;;22.94;48.42;96962.38;5066576;28;19932;-69
2023/10/09 14:09:37;;;;;;;;;;;;;;;22.93;46.32;96957.31;5066850;28;19935;-69
2023/10/09 14:12:08;;;;;;;;;;;;;;;22.94;48.33;96962.38;5066606;28;19932;-68
2023/10/09 14:14:38;;;;;;;;;;;;;;;22.94;52.70;96958.94;5067027;28;19947;-69
2023/10/09 14:17:11;;;;;;;;;;;;;;;22.88;52.41;96958.97;5065789;28;19957;-69
2023/10/09 14:19:38;;;;;;;;;;;;;;;22.83;52.34;96953.69;5065863;28;19940;-69
2023/10/09 14:22:05;;;;;;;;;;;;;;;22.82;53.71;96954.75;5066572;28;20193;-69
2023/10/09 14:24:34;;;;;;;;;;;;;;;22.80;53.53;96954.25;5065785;28;19935;-70
2023/10/09 14:27:04;;;;;;;;;;;;;;;22.78;54.72;96948.38;5065703;28;19946;-69
2023/10/09 14:29:37;;;;;;;;;;;;;;;22.75;55.48;96946.28;5065681;28;20224;-70
2023/10/09 14:32:03;;;;;;;;;;;;;;;22.70;55.03;96935.66;5066037;28;19933;-70
2023/10/09 14:34:32;;;;;;;;;;;;;;;22.66;55.49;96938.09;5066019;28;19952;-69
2023/10/09 14:37:00;;;;;;;;;;;;;;;22.63;55.55;96927.94;5065453;28;19942;-70
2023/10/09 14:39:26;;;;;;;;;;;;;;;22.62;56.19;96930.94;5065736;28;19938;-70
2023/10/09 14:41:54;;;;;;;;;;;;;;;22.62;55.75;96930.94;5065414;28;19939;-70
2023/10/09 14:44:20;;;;;;;;;;;;;;;22.63;55.71;96922.59;5065418;28;19936;-70
2023/10/09 14:46:46;;;;;;;;;;;;;;;22.67;55.26;96925.50;5065205;28;19934;-70
2023/10/09 14:49:14;;;;;;;;;;;;;;;22.72;57.59;96924.66;5065550;28;19962;-70
2023/10/09 14:51:40;;;;;;;;;;;;;;;22.73;55.85;96931.63;5065329;28;20223;-70
2023/10/09 14:54:07;;;;;;;;;;;;;;;22.74;55.02;96931.34;5064502;28;19936;-69
2023/10/09 14:56:36;;;;;;;;;;;;;;;22.76;54.00;96928.34;5065052;28;19936;-69
2023/10/09 14:59:02;;;;;;;;;;;;;;;22.77;55.81;96936.09;5065155;28;20130;-70
2023/10/09 15:01:29;;;;;;;;;;;;;;;22.78;58.00;96935.00;5065058;28;19936;-70
2023/10/09 15:03:57;;;;;;;;;;;;;;;22.79;55.92;96928.59;5065076;28;19966;-70
2023/10/09 15:06:24;;;;;;;;;;;;;;;22.81;57.71;96929.09;5065140;28;19934;-69
2023/10/09 15:08:50;;;;;;;;;;;;;;;22.83;56.45;96928.81;5065513;28;19938;-70
2023/10/09 15:11:16;;;;;;;;;;;;;;;22.83;56.07;96934.19;5063815;28;19938;-69
2023/10/09 15:13:41;;;;;;;;;;;;;;;22.82;57.27;96936.03;5065126;28;19936;-70
2023/10/09 15:16:07;;;;;;;;;;;;;;;22.80;56.64;96940.06;5064796;28;19937;-70
2023/10/09 15:18:33;;;;;;;;;;;;;;;22.77;57.15;96937.97;5064681;28;19961;-70
2023/10/09 15:20:59;;;;;;;;;;;;;;;22.71;57.29;96945.25;5064921;28;20242;-69
2023/10/09 15:23:26;;;;;;;;;;;;;;;22.63;56.84;96951.22;5064672;28;19970;-70
2023/10/09 15:25:52;;;;;;;;;;;;;;;22.57;60.23;96957.69;5064548;28;20115;-69
2023/10/09 15:28:21;;;;;;;;;;;;;;;22.48;59.68;96952.16;5064546;28;20078;-70
2023/10/09 15:30:49;;;;;;;;;;;;;;;22.40;60.86;96942.09;5064535;28;19936;-69
2023/10/09 15:33:16;;;;;;;;;;;;;;;22.31;59.10;96941.13;5064464;28;19935;-70
2023/10/09 15:35:46;;;;;;;;;;;;;;;22.22;59.70;96943.56;5064378;28;19954;-70
2023/10/09 15:38:13;;;;;;;;;;;;;;;22.14;60.91;96938.81;5064345;28;19943;-70
2023/10/09 15:40:42;;;;;;;;;;;;;;;22.04;61.51;96935.16;5065153;28;19932;-69
2023/10/09 15:43:12;;;;;;;;;;;;;;;21.96;60.90;96930.41;5064370;28;19932;-70
2023/10/09 15:45:42;;;;;;;;;;;;;;;21.89;61.61;96936.06;5064270;28;20212;-71
2023/10/09 15:48:08;;;;;;;;;;;;;;;21.83;61.80;96939.84;5064119;28;19973;-71